createdAt,value
2018-05-04T00:01:45.911Z,60.75
2018-05-04T00:02:50.519Z,60.80
2018-05-04T00:03:55.384Z,60.69
2018-05-04T00:04:59.923Z,60.64
2018-05-04T00:06:04.390Z,60.90
2018-05-04T00:07:09.305Z,61.26
2018-05-04T00:08:13.900Z,61.47
2018-05-04T00:09:19.129Z,61.45
2018-05-04T00:10:23.746Z,61.47
2018-05-04T00:11:28.799Z,61.50
2018-05-04T00:12:33.498Z,61.54
2018-05-04T00:13:38.514Z,61.61
2018-05-04T00:14:43.036Z,61.65
2018-05-04T00:15:47.600Z,61.72
2018-05-04T00:16:52.161Z,61.77
2018-05-04T00:17:56.868Z,61.77
2018-05-04T00:19:01.713Z,61.77
2018-05-04T00:20:06.530Z,61.86
2018-05-04T00:21:11.053Z,61.95
2018-05-04T00:22:15.587Z,61.94
2018-05-04T00:23:20.046Z,61.91
2018-05-04T00:24:24.503Z,61.88
2018-05-04T00:25:28.938Z,61.99
2018-05-04T00:26:33.662Z,62.08
2018-05-04T00:27:38.190Z,62.38
2018-05-04T00:28:42.574Z,62.72
2018-05-04T00:29:46.950Z,62.86
2018-05-04T00:30:51.296Z,62.76
2018-05-04T00:31:55.730Z,62.54
2018-05-04T00:33:00.452Z,62.46
2018-05-04T00:34:04.879Z,62.27
2018-05-04T00:35:09.317Z,62.18
2018-05-04T00:36:13.736Z,62.22
2018-05-04T00:37:18.214Z,62.36
2018-05-04T00:38:22.710Z,62.33
2018-05-04T00:39:27.439Z,62.36
2018-05-04T00:40:31.856Z,62.38
2018-05-04T00:41:36.289Z,62.38
2018-05-04T00:42:40.756Z,62.45
2018-05-04T00:43:45.146Z,62.52
2018-05-04T00:44:49.581Z,62.48
2018-05-04T00:45:54.356Z,62.50
2018-05-04T00:46:58.816Z,62.61
2018-05-04T00:48:03.315Z,62.66
2018-05-04T00:49:07.760Z,62.65
2018-05-04T00:50:12.242Z,62.65
2018-05-04T00:51:16.599Z,62.69
2018-05-04T00:52:21.250Z,62.86
2018-05-04T00:53:25.586Z,62.90
2018-05-04T00:54:29.958Z,63.01
2018-05-04T00:55:34.371Z,63.05
2018-05-04T00:56:38.737Z,63.15
2018-05-04T00:57:43.106Z,63.09
2018-05-04T00:58:47.763Z,63.03
2018-05-04T00:59:52.118Z,63.34
2018-05-04T01:00:56.994Z,63.63
2018-05-04T01:02:01.358Z,63.80
2018-05-04T01:03:05.894Z,63.91
2018-05-04T01:04:10.542Z,63.84
2018-05-04T01:05:15.553Z,63.85
2018-05-04T01:06:19.997Z,63.97
2018-05-04T01:07:24.570Z,63.92
2018-05-04T01:08:29.083Z,63.94
2018-05-04T01:09:33.573Z,63.89
2018-05-04T01:10:38.041Z,63.78
2018-05-04T01:11:42.873Z,63.83
2018-05-04T01:12:47.373Z,63.84
2018-05-04T01:13:52.522Z,63.92
2018-05-04T01:14:56.910Z,64.12
2018-05-04T01:16:01.400Z,64.22
2018-05-04T01:17:05.904Z,64.31
2018-05-04T01:18:10.666Z,64.34
2018-05-04T01:19:15.169Z,64.40
2018-05-04T01:20:19.628Z,64.62
2018-05-04T01:21:24.168Z,64.95
2018-05-04T01:22:28.637Z,65.22
2018-05-04T01:23:33.060Z,65.48
2018-05-04T01:24:37.797Z,65.63
2018-05-04T01:25:42.243Z,65.65
2018-05-04T01:26:46.723Z,65.59
2018-05-04T01:27:51.202Z,65.55
2018-05-04T01:28:55.650Z,65.56
2018-05-04T01:30:00.088Z,65.66
2018-05-04T01:31:04.804Z,65.76
2018-05-04T01:33:30.977Z,66.09
2018-05-04T01:34:35.451Z,66.07
2018-05-04T01:35:39.981Z,66.01
2018-05-04T01:36:44.813Z,65.99
2018-05-04T01:37:49.252Z,66.07
2018-05-04T01:38:53.770Z,66.21
2018-05-04T01:39:58.249Z,66.20
2018-05-04T01:41:02.704Z,66.27
2018-05-04T01:42:07.218Z,66.30
2018-05-04T01:43:11.987Z,66.29
2018-05-04T01:44:16.478Z,66.31
2018-05-04T01:45:24.033Z,66.40
2018-05-04T01:46:28.484Z,66.43
2018-05-04T01:47:32.925Z,66.42
2018-05-04T01:48:37.342Z,66.37
2018-05-04T01:49:42.029Z,66.50
2018-05-04T01:50:46.413Z,66.64
2018-05-04T01:51:50.949Z,66.54
2018-05-04T01:52:55.456Z,66.55
2018-05-04T01:53:59.851Z,66.75
2018-05-04T01:55:04.269Z,66.90
2018-05-04T01:56:09.020Z,67.05
2018-05-04T01:57:13.421Z,67.22
2018-05-04T01:58:17.820Z,67.28
2018-05-04T01:59:22.131Z,67.23
2018-05-04T02:00:26.571Z,67.19
2018-05-04T02:01:30.844Z,67.24
2018-05-04T02:02:35.430Z,67.34
2018-05-04T02:03:39.701Z,67.44
2018-05-04T02:04:44.033Z,67.51
2018-05-04T02:05:48.511Z,67.54
2018-05-04T02:06:52.841Z,67.70
2018-05-04T02:07:57.222Z,67.90
2018-05-04T02:09:01.870Z,67.91
2018-05-04T02:10:06.211Z,67.95
2018-05-04T02:11:10.532Z,68.31
2018-05-04T02:12:14.870Z,68.82
2018-05-04T02:13:19.228Z,69.33
2018-05-04T02:14:23.493Z,69.55
2018-05-04T02:15:28.106Z,69.38
2018-05-04T02:16:32.369Z,69.28
2018-05-04T02:17:36.660Z,69.33
2018-05-04T02:18:41.053Z,69.36
2018-05-04T02:19:45.452Z,69.38
2018-05-04T02:20:49.877Z,69.38
2018-05-04T02:21:54.548Z,69.40
2018-05-04T02:22:59.045Z,69.62
2018-05-04T02:24:03.556Z,69.95
2018-05-04T02:25:08.056Z,70.13
2018-05-04T02:26:12.528Z,70.19
2018-05-04T02:27:17.028Z,70.12
2018-05-04T02:28:21.855Z,69.95
2018-05-04T02:29:26.405Z,69.87
2018-05-04T02:30:31.005Z,69.74
2018-05-04T02:31:35.517Z,69.70
2018-05-04T02:32:39.923Z,69.73
2018-05-04T02:33:44.317Z,69.69
2018-05-04T02:34:48.992Z,69.61
2018-05-04T02:35:53.400Z,69.80
2018-05-04T02:36:57.862Z,70.00
2018-05-04T02:38:02.355Z,70.25
2018-05-04T02:39:06.863Z,70.41
2018-05-04T02:40:11.343Z,70.42
2018-05-04T02:41:16.145Z,70.49
2018-05-04T02:42:20.625Z,70.69
2018-05-04T02:43:25.031Z,70.76
2018-05-04T02:44:29.423Z,70.67
2018-05-04T02:45:33.946Z,70.66
2018-05-04T02:46:38.484Z,70.63
2018-05-04T02:47:43.251Z,70.47
2018-05-04T02:48:47.775Z,70.46
2018-05-04T02:49:52.228Z,70.73
2018-05-04T02:50:56.811Z,70.93
2018-05-04T02:52:01.370Z,71.29
2018-05-04T02:53:05.929Z,71.43
2018-05-04T02:54:10.799Z,71.54
2018-05-04T02:55:15.242Z,71.61
2018-05-04T02:56:19.670Z,71.65
2018-05-04T02:57:24.125Z,71.60
2018-05-04T02:58:28.651Z,71.48
2018-05-04T02:59:33.072Z,71.34
2018-05-04T03:00:37.864Z,71.27
2018-05-04T03:01:42.279Z,71.34
2018-05-04T03:02:46.655Z,71.34
2018-05-04T03:03:51.106Z,71.55
2018-05-04T03:04:55.606Z,71.58
2018-05-04T03:06:00.088Z,71.58
2018-05-04T03:07:04.961Z,71.55
2018-05-04T03:08:09.452Z,71.61
2018-05-04T03:09:13.848Z,71.71
2018-05-04T03:10:18.483Z,71.79
2018-05-04T03:11:22.980Z,71.69
2018-05-04T03:12:27.465Z,71.54
2018-05-04T03:13:32.249Z,71.52
2018-05-04T03:14:36.721Z,71.41
2018-05-04T03:15:41.204Z,71.55
2018-05-04T03:16:45.726Z,71.73
2018-05-04T03:17:50.205Z,71.87
2018-05-04T03:18:54.700Z,72.02
2018-05-04T03:20:01.718Z,72.18
2018-05-04T03:21:06.245Z,72.49
2018-05-04T03:22:10.752Z,72.59
2018-05-04T03:23:15.266Z,72.71
2018-05-04T03:24:19.768Z,72.71
2018-05-04T03:25:24.243Z,72.44
2018-05-04T03:26:29.001Z,72.38
2018-05-04T03:27:33.483Z,72.56
2018-05-04T03:28:37.986Z,72.58
2018-05-04T03:29:42.523Z,72.46
2018-05-04T03:30:47.042Z,72.31
2018-05-04T03:31:51.530Z,72.16
2018-05-04T03:32:56.320Z,72.01
2018-05-04T03:34:00.826Z,71.95
2018-05-04T03:35:05.392Z,71.93
2018-05-04T03:36:09.918Z,71.90
2018-05-04T03:37:14.425Z,71.87
2018-05-04T03:38:18.954Z,72.00
2018-05-04T03:39:23.725Z,72.00
2018-05-04T03:40:28.241Z,72.04
2018-05-04T03:41:32.754Z,72.21
2018-05-04T03:42:37.266Z,72.53
2018-05-04T03:43:41.743Z,72.64
2018-05-04T03:44:46.239Z,72.61
2018-05-04T03:45:51.022Z,72.73
2018-05-04T03:46:55.543Z,72.65
2018-05-04T03:48:00.064Z,72.48
2018-05-04T03:49:04.580Z,72.62
2018-05-04T03:50:09.102Z,72.73
2018-05-04T03:51:13.519Z,72.86
2018-05-04T03:52:18.172Z,72.96
2018-05-04T03:53:22.437Z,73.09
2018-05-04T03:54:26.944Z,73.20
2018-05-04T03:55:31.452Z,73.34
2018-05-04T03:56:35.942Z,73.40
2018-05-04T03:57:45.675Z,73.41
2018-05-04T03:58:55.450Z,73.39
2018-05-04T04:02:07.159Z,73.33
2018-05-04T04:03:16.903Z,73.23
2018-05-04T04:04:21.394Z,73.28
2018-05-04T04:05:25.966Z,73.38
2018-05-04T04:06:30.528Z,73.27
2018-05-04T04:07:35.083Z,73.18
2018-05-04T04:08:39.641Z,73.16
2018-05-04T04:09:44.490Z,73.11
2018-05-04T04:10:49.119Z,73.01
2018-05-04T04:11:53.682Z,72.97
2018-05-04T04:12:58.210Z,72.92
2018-05-04T04:14:02.763Z,73.00
2018-05-04T04:15:07.370Z,73.21
2018-05-04T04:16:12.213Z,73.18
2018-05-04T04:17:16.782Z,73.30
2018-05-04T04:18:21.306Z,73.41
2018-05-04T04:19:25.772Z,73.51
2018-05-04T04:20:30.269Z,73.47
2018-05-04T04:21:34.765Z,73.51
2018-05-04T04:22:39.526Z,73.53
2018-05-04T04:23:43.988Z,73.65
2018-05-04T04:24:48.462Z,73.69
2018-05-04T04:25:52.929Z,73.64
2018-05-04T04:26:57.443Z,73.70
2018-05-04T04:28:01.902Z,73.75
2018-05-04T04:29:06.713Z,73.66
2018-05-04T04:30:11.178Z,73.50
2018-05-04T04:31:15.695Z,73.46
2018-05-04T04:32:20.223Z,73.45
2018-05-04T04:33:24.729Z,73.48
2018-05-04T04:34:29.231Z,73.42
2018-05-04T04:35:34.120Z,73.41
2018-05-04T04:36:38.615Z,73.52
2018-05-04T04:37:43.076Z,73.65
2018-05-04T04:38:47.663Z,73.64
2018-05-04T04:39:52.145Z,73.66
2018-05-04T04:40:56.602Z,73.79
2018-05-04T04:42:01.458Z,74.15
2018-05-04T04:43:05.967Z,74.28
2018-05-04T04:44:10.451Z,74.57
2018-05-04T04:45:14.835Z,74.74
2018-05-04T04:46:19.328Z,74.84
2018-05-04T04:47:23.831Z,74.92
2018-05-04T04:48:28.742Z,75.01
2018-05-04T04:49:33.397Z,75.13
2018-05-04T04:50:37.919Z,75.18
2018-05-04T04:51:42.415Z,75.30
2018-05-04T04:52:47.054Z,75.40
2018-05-04T04:53:51.552Z,75.51
2018-05-04T04:54:56.335Z,75.48
2018-05-04T04:56:00.752Z,75.35
2018-05-04T04:57:05.176Z,75.22
2018-05-04T04:58:09.600Z,75.11
2018-05-04T04:59:14.082Z,75.03
2018-05-04T05:00:18.569Z,74.87
2018-05-04T05:01:23.346Z,74.73
2018-05-04T05:02:27.784Z,74.67
2018-05-04T05:03:32.313Z,74.86
2018-05-04T05:04:36.816Z,74.83
2018-05-04T05:05:41.362Z,74.55
2018-05-04T05:06:45.861Z,74.42
2018-05-04T05:07:50.358Z,74.30
2018-05-04T05:08:54.979Z,74.20
2018-05-04T05:09:59.514Z,74.09
2018-05-04T05:11:04.012Z,74.07
2018-05-04T05:12:08.503Z,73.97
2018-05-04T05:13:13.494Z,73.94
2018-05-04T05:14:18.003Z,74.12
2018-05-04T05:15:22.508Z,74.26
2018-05-04T05:16:27.031Z,74.49
2018-05-04T05:17:31.531Z,74.75
2018-05-04T05:18:38.004Z,74.89
2018-05-04T05:19:43.113Z,74.80
2018-05-04T05:20:47.587Z,74.80
2018-05-04T05:21:52.227Z,75.12
2018-05-04T05:22:56.795Z,75.38
2018-05-04T05:24:01.218Z,75.36
2018-05-04T05:25:07.857Z,75.21
2018-05-04T05:26:12.678Z,75.08
2018-05-04T05:27:17.182Z,74.82
2018-05-04T05:28:21.775Z,74.73
2018-05-04T05:29:26.348Z,74.60
2018-05-04T05:30:30.781Z,74.39
2018-05-04T05:31:35.290Z,74.15
2018-05-04T05:32:39.765Z,73.99
2018-05-04T05:33:44.382Z,73.75
2018-05-04T05:34:48.937Z,73.72
2018-05-04T05:35:53.424Z,73.56
2018-05-04T05:36:57.994Z,73.36
2018-05-04T05:38:02.519Z,73.23
2018-05-04T05:39:07.575Z,73.20
2018-05-04T05:40:12.092Z,73.23
2018-05-04T05:41:16.618Z,73.18
2018-05-04T05:42:21.662Z,72.99
2018-05-04T05:43:26.175Z,72.78
2018-05-04T05:44:30.738Z,72.73
2018-05-04T05:45:35.713Z,72.54
2018-05-04T05:46:40.210Z,72.49
2018-05-04T05:47:44.812Z,72.35
2018-05-04T05:48:49.366Z,72.32
2018-05-04T05:49:53.878Z,72.26
2018-05-04T05:50:58.404Z,72.03
2018-05-04T05:52:03.481Z,71.89
2018-05-04T05:53:08.098Z,71.67
2018-05-04T05:54:12.705Z,71.62
2018-05-04T05:55:17.157Z,71.58
2018-05-04T05:56:21.750Z,71.39
2018-05-04T05:57:26.303Z,71.24
2018-05-04T05:58:31.405Z,71.09
2018-05-04T05:59:35.943Z,70.91
2018-05-04T06:00:40.498Z,70.74
2018-05-04T06:01:45.073Z,70.59
2018-05-04T06:02:49.688Z,70.42
2018-05-04T06:03:54.193Z,70.16
2018-05-04T06:04:59.135Z,70.00
2018-05-04T06:06:03.687Z,69.83
2018-05-04T06:07:08.181Z,69.60
2018-05-04T06:08:12.663Z,69.52
2018-05-04T06:09:17.210Z,69.32
2018-05-04T06:10:21.724Z,69.15
2018-05-04T06:11:26.595Z,69.12
2018-05-04T06:12:31.221Z,69.17
2018-05-04T06:13:38.417Z,69.29
2018-05-04T06:14:43.037Z,69.15
2018-05-04T06:15:47.565Z,69.01
2018-05-04T06:16:52.082Z,68.96
2018-05-04T06:17:57.059Z,68.82
2018-05-04T06:19:01.592Z,68.72
2018-05-04T06:20:06.211Z,68.55
2018-05-04T06:21:10.737Z,68.37
2018-05-04T06:22:15.230Z,68.25
2018-05-04T06:23:19.714Z,68.07
2018-05-04T06:24:24.675Z,67.87
2018-05-04T06:25:29.173Z,67.51
2018-05-04T06:26:33.698Z,67.03
2018-05-04T06:27:38.167Z,66.83
2018-05-04T06:28:42.697Z,66.62
2018-05-04T06:29:47.200Z,66.40
2018-05-04T06:30:52.180Z,66.08
2018-05-04T06:31:56.725Z,66.00
2018-05-04T06:33:01.197Z,65.88
2018-05-04T06:34:05.691Z,65.63
2018-05-04T06:35:10.268Z,65.35
2018-05-04T06:36:14.935Z,64.96
2018-05-04T06:37:19.960Z,64.87
2018-05-04T06:38:24.596Z,64.67
2018-05-04T06:39:29.174Z,64.33
2018-05-04T06:40:33.784Z,64.25
2018-05-04T06:41:39.281Z,64.14
2018-05-04T06:42:43.783Z,64.12
2018-05-04T06:43:48.775Z,64.05
2018-05-04T06:44:54.318Z,64.01
2018-05-04T06:45:59.249Z,63.43
2018-05-04T06:47:04.463Z,63.34
2018-05-04T06:48:10.085Z,63.25
2018-05-04T06:49:15.680Z,62.93
2018-05-04T06:50:23.027Z,62.87
2018-05-04T06:51:28.067Z,62.69
2018-05-04T06:52:33.614Z,61.76
2018-05-04T06:53:38.881Z,61.55
2018-05-04T06:54:44.175Z,61.22
2018-05-04T06:55:49.347Z,61.01
2018-05-04T06:56:55.521Z,60.24
2018-05-04T06:58:01.401Z,60.02
2018-05-04T06:59:06.651Z,59.81
2018-05-04T07:00:11.743Z,58.92
2018-05-04T07:01:16.844Z,58.74
2018-05-04T07:02:21.361Z,57.89
2018-05-04T07:03:26.374Z,56.84
2018-05-04T07:04:30.950Z,56.06
2018-05-04T07:05:36.685Z,56.16
2018-05-04T07:06:41.222Z,55.44
2018-05-04T07:07:46.142Z,54.63
2018-05-04T07:08:51.717Z,54.17
2018-05-04T07:09:56.465Z,53.12
2018-05-04T07:11:01.594Z,52.45
2018-05-04T07:12:05.983Z,51.72
2018-05-04T07:13:10.524Z,51.16
2018-05-04T07:14:15.417Z,50.58
2018-05-04T07:15:20.325Z,50.37
2018-05-04T07:16:25.366Z,50.71
2018-05-04T07:17:29.860Z,49.71
2018-05-04T07:18:34.588Z,49.43
2018-05-04T07:19:39.603Z,49.30
2018-05-04T07:20:44.514Z,48.50
2018-05-04T07:21:49.822Z,47.82
2018-05-04T07:22:54.363Z,47.41
2018-05-04T07:23:58.986Z,47.10
2018-05-04T07:25:04.080Z,46.72
2018-05-04T07:26:08.620Z,46.53
2018-05-04T07:27:13.470Z,46.70
2018-05-04T07:28:18.277Z,46.71
2018-05-04T07:29:22.739Z,46.23
2018-05-04T07:30:27.238Z,45.74
2018-05-04T07:31:31.782Z,45.30
2018-05-04T07:32:36.466Z,45.06
2018-05-04T07:33:41.128Z,45.11
2018-05-04T07:34:46.086Z,44.56
2018-05-04T07:35:50.596Z,44.27
2018-05-04T07:36:55.240Z,44.23
2018-05-04T07:37:59.910Z,44.21
2018-05-04T07:39:04.639Z,44.02
2018-05-04T07:40:09.215Z,43.80
2018-05-04T07:41:13.755Z,43.75
2018-05-04T07:42:18.161Z,43.44
2018-05-04T07:43:22.582Z,43.33
2018-05-04T07:44:27.356Z,43.28
2018-05-04T07:45:32.004Z,42.90
2018-05-04T07:46:36.917Z,42.80
2018-05-04T07:47:41.616Z,42.57
2018-05-04T07:48:46.303Z,42.46
2018-05-04T07:49:50.835Z,42.42
2018-05-04T07:50:55.505Z,42.31
2018-05-04T07:52:00.042Z,42.31
2018-05-04T07:53:05.054Z,42.11
2018-05-04T07:54:09.539Z,42.02
2018-05-04T07:55:14.228Z,41.80
2018-05-04T07:56:23.064Z,41.67
2018-05-04T07:57:27.578Z,41.59
2018-05-04T07:58:32.200Z,41.46
2018-05-04T07:59:37.241Z,41.34
2018-05-04T08:00:41.820Z,41.32
2018-05-04T08:01:46.584Z,41.30
2018-05-04T08:02:51.183Z,41.17
2018-05-04T08:03:55.835Z,41.03
2018-05-04T08:05:00.519Z,41.23
2018-05-04T08:06:05.501Z,41.03
2018-05-04T08:07:10.146Z,40.83
2018-05-04T08:08:14.731Z,40.85
2018-05-04T08:09:19.281Z,40.73
2018-05-04T08:10:23.801Z,40.61
2018-05-04T08:11:28.320Z,40.26
2018-05-04T08:12:33.382Z,40.21
2018-05-04T08:13:37.971Z,40.03
2018-05-04T08:14:42.739Z,40.17
2018-05-04T08:15:47.594Z,40.03
2018-05-04T08:16:52.121Z,39.79
2018-05-04T08:17:56.660Z,39.62
2018-05-04T08:19:01.150Z,39.36
2018-05-04T08:20:05.874Z,39.34
2018-05-04T08:21:10.899Z,39.29
2018-05-04T08:22:15.499Z,39.30
2018-05-04T08:23:20.049Z,39.28
2018-05-04T08:24:24.952Z,39.08
2018-05-04T08:25:29.543Z,39.09
2018-05-04T08:26:34.066Z,38.52
2018-05-04T08:27:38.614Z,38.36
2018-05-04T08:28:43.131Z,38.39
2018-05-04T08:29:47.529Z,38.65
2018-05-04T08:30:52.294Z,38.90
2018-05-04T08:31:56.684Z,38.68
2018-05-04T08:33:01.080Z,38.42
2018-05-04T08:34:07.123Z,38.20
2018-05-04T08:35:12.012Z,37.94
2018-05-04T08:36:16.498Z,37.81
2018-05-04T08:37:21.404Z,37.74
2018-05-04T08:38:25.942Z,37.58
2018-05-04T08:39:30.498Z,37.56
2018-05-04T08:40:35.167Z,37.49
2018-05-04T08:41:39.730Z,37.38
2018-05-04T08:42:44.341Z,37.38
2018-05-04T08:43:48.916Z,37.48
2018-05-04T08:44:53.503Z,37.27
2018-05-04T08:45:58.430Z,36.86
2018-05-04T08:47:03.137Z,36.73
2018-05-04T08:48:07.761Z,36.54
2018-05-04T08:49:12.792Z,36.58
2018-05-04T08:50:17.328Z,36.57
2018-05-04T08:51:21.918Z,36.44
2018-05-04T08:52:26.548Z,36.63
2018-05-04T08:53:31.086Z,36.62
2018-05-04T08:54:35.546Z,36.56
2018-05-04T08:55:40.413Z,36.24
2018-05-04T08:56:44.882Z,36.14
2018-05-04T08:57:49.316Z,36.19
2018-05-04T08:58:53.758Z,36.02
2018-05-04T08:59:58.214Z,36.07
2018-05-04T09:01:02.678Z,36.24
2018-05-04T09:02:07.476Z,35.99
2018-05-04T09:03:12.054Z,36.14
2018-05-04T09:04:16.529Z,36.17
2018-05-04T09:05:21.140Z,36.01
2018-05-04T09:06:25.632Z,36.12
2018-05-04T09:07:30.171Z,36.08
2018-05-04T09:08:35.059Z,35.88
2018-05-04T09:09:39.589Z,35.81
2018-05-04T09:10:44.129Z,35.67
2018-05-04T09:11:48.634Z,35.76
2018-05-04T09:12:53.274Z,35.69
2018-05-04T09:13:57.837Z,35.81
2018-05-04T09:15:02.800Z,35.70
2018-05-04T09:16:07.840Z,35.63
2018-05-04T09:17:12.299Z,35.95
2018-05-04T09:18:17.781Z,35.83
2018-05-04T09:19:22.461Z,35.92
2018-05-04T09:20:27.144Z,35.83
2018-05-04T09:21:31.646Z,35.39
2018-05-04T09:22:36.201Z,35.61
2018-05-04T09:23:40.750Z,35.60
2018-05-04T09:24:45.391Z,35.37
2018-05-04T09:25:50.067Z,35.48
2018-05-04T09:26:54.802Z,35.41
2018-05-04T09:27:59.416Z,35.32
2018-05-04T09:29:04.046Z,35.27
2018-05-04T09:30:08.697Z,35.25
2018-05-04T09:31:13.717Z,35.25
2018-05-04T09:32:18.213Z,35.13
2018-05-04T09:33:22.904Z,34.88
2018-05-04T09:34:27.565Z,34.51
2018-05-04T09:35:32.309Z,34.41
2018-05-04T09:36:36.980Z,34.41
2018-05-04T09:37:42.194Z,34.77
2018-05-04T09:38:46.811Z,34.84
2018-05-04T09:39:51.501Z,34.97
2018-05-04T09:40:57.415Z,34.69
2018-05-04T09:42:02.401Z,34.86
2018-05-04T09:43:07.976Z,34.80
2018-05-04T09:44:12.921Z,34.60
2018-05-04T09:45:18.550Z,34.31
2018-05-04T09:46:23.114Z,34.59
2018-05-04T09:47:27.622Z,34.61
2018-05-04T09:48:32.171Z,34.55
2018-05-04T09:49:36.716Z,34.42
2018-05-04T09:50:41.538Z,34.98
2018-05-04T09:51:46.098Z,34.66
2018-05-04T09:52:51.090Z,34.51
2018-05-04T09:53:55.849Z,34.77
2018-05-04T09:55:00.393Z,34.66
2018-05-04T09:56:06.119Z,34.57
2018-05-04T09:57:12.757Z,34.91
2018-05-04T09:58:17.408Z,35.05
2018-05-04T09:59:22.647Z,35.03
2018-05-04T10:00:27.366Z,35.17
2018-05-04T10:01:32.722Z,34.75
2018-05-04T10:02:37.254Z,34.94
2018-05-04T10:03:42.207Z,34.79
2018-05-04T10:04:46.747Z,34.95
2018-05-04T10:05:51.290Z,34.68
2018-05-04T10:06:55.798Z,34.48
2018-05-04T10:08:00.381Z,34.22
2018-05-04T10:09:05.121Z,34.21
2018-05-04T10:10:09.723Z,34.15
2018-05-04T10:11:14.279Z,34.21
2018-05-04T10:12:19.330Z,34.12
2018-05-04T10:13:23.933Z,34.18
2018-05-04T10:14:28.487Z,34.26
2018-05-04T10:15:33.434Z,34.19
2018-05-04T10:16:38.008Z,34.06
2018-05-04T10:17:42.630Z,34.11
2018-05-04T10:18:47.172Z,33.77
2018-05-04T10:19:51.952Z,33.73
2018-05-04T10:20:56.619Z,33.66
2018-05-04T10:22:01.686Z,33.58
2018-05-04T10:23:06.375Z,33.70
2018-05-04T10:24:11.020Z,33.91
2018-05-04T10:25:15.672Z,34.24
2018-05-04T10:26:20.310Z,34.24
2018-05-04T10:27:25.239Z,34.25
2018-05-04T10:28:30.462Z,34.26
2018-05-04T10:29:35.151Z,34.25
2018-05-04T10:30:39.899Z,34.10
2018-05-04T10:31:44.480Z,33.56
2018-05-04T10:32:49.145Z,33.78
2018-05-04T10:33:54.065Z,34.01
2018-05-04T10:34:58.760Z,33.92
2018-05-04T10:36:03.382Z,33.66
2018-05-04T10:37:08.021Z,33.52
2018-05-04T10:38:13.356Z,33.37
2018-05-04T10:39:17.997Z,33.08
2018-05-04T10:40:23.166Z,33.12
2018-05-04T10:41:27.734Z,33.06
2018-05-04T10:42:32.537Z,33.01
2018-05-04T10:43:37.164Z,32.89
2018-05-04T10:44:41.839Z,33.16
2018-05-04T10:45:46.499Z,33.65
2018-05-04T10:46:51.638Z,33.51
2018-05-04T10:47:56.345Z,33.63
2018-05-04T10:49:01.021Z,33.32
2018-05-04T10:50:05.660Z,33.32
2018-05-04T10:51:10.303Z,33.26
2018-05-04T10:52:14.946Z,33.59
2018-05-04T10:53:19.952Z,33.19
2018-05-04T10:54:24.550Z,33.06
2018-05-04T10:55:29.243Z,33.22
2018-05-04T10:56:33.990Z,33.08
2018-05-04T10:57:38.635Z,33.13
2018-05-04T10:58:43.306Z,33.23
2018-05-04T10:59:48.030Z,33.01
2018-05-04T11:00:53.214Z,32.87
2018-05-04T11:01:57.989Z,32.87
2018-05-04T11:03:02.677Z,32.37
2018-05-04T11:04:07.288Z,32.27
2018-05-04T11:05:11.918Z,32.38
2018-05-04T11:06:16.554Z,32.23
2018-05-04T11:07:21.249Z,32.14
2018-05-04T11:08:25.762Z,32.24
2018-05-04T11:09:30.348Z,31.89
2018-05-04T11:10:34.969Z,31.98
2018-05-04T11:11:39.598Z,32.24
2018-05-04T11:12:44.258Z,32.56
2018-05-04T11:13:48.874Z,32.62
2018-05-04T11:14:53.433Z,32.94
2018-05-04T11:15:59.139Z,32.92
2018-05-04T11:17:04.179Z,32.79
2018-05-04T11:18:08.599Z,32.39
2018-05-04T11:19:13.137Z,32.33
2018-05-04T11:20:17.685Z,32.31
2018-05-04T11:21:22.270Z,32.62
2018-05-04T11:22:27.378Z,32.58
2018-05-04T11:23:31.973Z,32.37
2018-05-04T11:24:36.828Z,32.28
2018-05-04T11:25:41.381Z,32.20
2018-05-04T11:26:45.994Z,32.27
2018-05-04T11:27:50.548Z,32.12
2018-05-04T11:28:55.576Z,31.78
2018-05-04T11:30:00.162Z,31.99
2018-05-04T11:31:04.805Z,32.08
2018-05-04T11:32:09.362Z,32.29
2018-05-04T11:33:13.914Z,32.35
2018-05-04T11:34:18.503Z,32.18
2018-05-04T11:35:23.386Z,31.98
2018-05-04T11:36:28.720Z,31.70
2018-05-04T11:37:33.287Z,31.62
2018-05-04T11:38:38.060Z,31.43
2018-05-04T11:39:42.619Z,31.26
2018-05-04T11:40:47.198Z,31.61
2018-05-04T11:41:51.893Z,31.60
2018-05-04T11:42:56.500Z,31.45
2018-05-04T11:44:01.177Z,31.35
2018-05-04T11:45:05.767Z,31.54
2018-05-04T11:46:10.412Z,31.34
2018-05-04T11:47:16.184Z,31.36
2018-05-04T11:48:20.720Z,31.21
2018-05-04T11:49:25.365Z,31.34
2018-05-04T11:50:30.056Z,31.36
2018-05-04T11:51:34.929Z,31.24
2018-05-04T11:52:39.618Z,31.16
2018-05-04T11:53:44.266Z,31.06
2018-05-04T11:54:48.819Z,30.65
2018-05-04T11:55:53.409Z,30.75
2018-05-04T11:56:58.025Z,30.75
2018-05-04T11:58:02.673Z,30.77
2018-05-04T11:59:07.606Z,31.00
2018-05-04T12:00:12.263Z,31.18
2018-05-04T12:01:16.833Z,30.95
2018-05-04T12:02:21.574Z,31.04
2018-05-04T12:03:26.269Z,30.83
2018-05-04T12:04:31.399Z,30.72
2018-05-04T12:05:37.072Z,30.49
2018-05-04T12:06:41.753Z,30.69
2018-05-04T12:07:46.451Z,30.97
2018-05-04T12:08:50.969Z,30.93
2018-05-04T12:09:55.654Z,30.73
2018-05-04T12:11:00.718Z,30.74
2018-05-04T12:12:05.622Z,30.79
2018-05-04T12:13:10.307Z,30.91
2018-05-04T12:14:15.588Z,30.95
2018-05-04T12:15:20.257Z,30.59
2018-05-04T12:16:24.821Z,30.79
2018-05-04T12:17:29.403Z,30.79
2018-05-04T12:18:34.467Z,30.53
2018-05-04T12:19:40.152Z,30.55
2018-05-04T12:20:44.905Z,30.27
2018-05-04T12:21:49.557Z,30.53
2018-05-04T12:22:54.484Z,30.41
2018-05-04T12:24:00.004Z,30.68
2018-05-04T12:25:05.011Z,30.70
2018-05-04T12:26:17.773Z,30.62
2018-05-04T12:27:22.374Z,30.51
2018-05-04T12:28:26.942Z,30.24
2018-05-04T12:29:40.767Z,30.24
2018-05-04T12:30:45.815Z,30.04
2018-05-04T12:31:50.980Z,29.57
2018-05-04T12:32:56.052Z,29.34
2018-05-04T12:34:00.871Z,29.41
2018-05-04T12:35:05.950Z,29.58
2018-05-04T12:36:10.570Z,29.44
2018-05-04T12:37:15.439Z,29.41
2018-05-04T12:38:23.176Z,29.46
2018-05-04T12:39:27.691Z,29.27
2018-05-04T12:40:33.620Z,29.10
2018-05-04T12:41:38.780Z,28.84
2018-05-04T12:42:44.260Z,28.96
2018-05-04T12:43:49.035Z,28.63
2018-05-04T12:44:55.481Z,28.71
2018-05-04T12:46:00.439Z,28.94
2018-05-04T12:47:05.351Z,28.89
2018-05-04T12:48:10.683Z,28.89
2018-05-04T12:49:15.635Z,28.77
2018-05-04T12:50:20.605Z,28.72
2018-05-04T12:51:25.378Z,28.67
2018-05-04T12:52:30.320Z,28.69
2018-05-04T12:53:38.684Z,28.55
2018-05-04T12:55:12.613Z,28.30
2018-05-04T12:56:17.209Z,28.23
2018-05-04T12:57:21.785Z,28.08
2018-05-04T12:58:26.395Z,27.93
2018-05-04T12:59:30.978Z,28.31
2018-05-04T13:00:35.680Z,28.42
2018-05-04T13:01:40.615Z,28.36
2018-05-04T13:02:45.248Z,28.33
2018-05-04T13:03:49.929Z,28.62
2018-05-04T13:04:54.732Z,28.79
2018-05-04T13:05:59.346Z,28.85
2018-05-04T13:07:03.970Z,28.75
2018-05-04T13:08:08.910Z,28.58
2018-05-04T13:09:13.509Z,28.45
2018-05-04T13:10:18.110Z,27.90
2018-05-04T13:11:22.742Z,28.31
2018-05-04T13:12:27.419Z,28.41
2018-05-04T13:13:32.201Z,28.77
2018-05-04T13:14:37.348Z,28.10
2018-05-04T13:15:42.519Z,28.09
2018-05-04T13:16:47.180Z,28.19
2018-05-04T13:17:51.668Z,28.27
2018-05-04T13:18:56.093Z,28.25
2018-05-04T13:20:00.524Z,28.13
2018-05-04T13:21:05.367Z,28.35
2018-05-04T13:22:09.911Z,28.24
2018-05-04T13:23:14.432Z,28.27
2018-05-04T13:24:18.980Z,27.95
2018-05-04T13:25:23.488Z,28.01
2018-05-04T13:26:28.106Z,28.03
2018-05-04T13:27:33.175Z,28.00
2018-05-04T13:28:37.743Z,28.03
2018-05-04T13:29:42.282Z,27.93
2018-05-04T13:30:46.947Z,27.94
2018-05-04T13:31:51.576Z,27.90
2018-05-04T13:32:56.306Z,27.97
2018-05-04T13:34:00.985Z,28.00
2018-05-04T13:35:05.658Z,28.02
2018-05-04T13:36:10.319Z,27.88
2018-05-04T13:37:15.018Z,27.87
2018-05-04T13:38:19.985Z,27.92
2018-05-04T13:39:24.644Z,27.94
2018-05-04T13:40:29.608Z,27.89
2018-05-04T13:41:34.272Z,27.87
2018-05-04T13:42:39.027Z,27.92
2018-05-04T13:43:43.708Z,28.30
2018-05-04T13:44:48.335Z,28.66
2018-05-04T13:45:52.949Z,28.87
2018-05-04T13:46:57.594Z,28.89
2018-05-04T13:48:02.199Z,28.78
2018-05-04T13:49:06.953Z,28.78
2018-05-04T13:50:12.437Z,28.56
2018-05-04T13:51:17.155Z,28.20
2018-05-04T13:52:21.787Z,28.58
2018-05-04T13:53:26.400Z,28.41
2018-05-04T13:54:31.055Z,28.36
2018-05-04T13:55:35.666Z,28.57
2018-05-04T13:56:40.479Z,28.38
2018-05-04T13:57:45.066Z,27.93
2018-05-04T13:58:49.699Z,27.93